createdAt,value
2022-08-18T00:00:06.270Z,22.44
2022-08-18T00:02:43.432Z,22.44
2022-08-18T00:05:16.473Z,22.42
2022-08-18T00:07:47.100Z,22.43
2022-08-18T00:10:18.777Z,22.39
2022-08-18T00:12:46.010Z,22.36
2022-08-18T00:15:16.806Z,22.29
2022-08-18T00:17:43.923Z,22.22
2022-08-18T00:20:22.013Z,22.16
2022-08-18T00:22:50.208Z,22.11
2022-08-18T00:25:19.785Z,22.06
2022-08-18T00:27:46.906Z,22.04
2022-08-18T00:30:20.209Z,22.01
2022-08-18T00:32:57.792Z,21.96
2022-08-18T00:35:32.832Z,21.92
2022-08-18T00:38:04.088Z,21.87
2022-08-18T00:40:38.594Z,21.82
2022-08-18T00:43:13.664Z,21.78
2022-08-18T00:45:43.498Z,21.75
2022-08-18T00:48:15.214Z,21.71
2022-08-18T00:50:51.621Z,21.68
2022-08-18T00:53:27.661Z,21.65
2022-08-18T00:56:05.049Z,21.63
2022-08-18T00:58:41.348Z,21.61
2022-08-18T01:01:12.746Z,21.61
2022-08-18T01:03:43.874Z,21.60
2022-08-18T01:06:23.964Z,21.57
2022-08-18T01:08:51.214Z,21.54
2022-08-18T01:11:18.127Z,21.57
2022-08-18T01:13:45.648Z,21.55
2022-08-18T01:16:31.050Z,21.57
2022-08-18T01:19:16.669Z,21.56
2022-08-18T01:21:51.087Z,21.57
2022-08-18T01:24:52.327Z,21.56
2022-08-18T01:27:19.704Z,21.53
2022-08-18T01:29:50.128Z,21.56
2022-08-18T01:32:21.924Z,21.57
2022-08-18T01:34:51.914Z,21.57
2022-08-18T01:37:24.445Z,21.56
2022-08-18T01:41:25.075Z,21.57
2022-08-18T01:42:39.786Z,21.57
2022-08-18T01:45:08.242Z,21.55
2022-08-18T01:47:48.313Z,21.55
2022-08-18T01:50:16.077Z,21.53
2022-08-18T01:52:43.604Z,21.51
2022-08-18T01:55:10.810Z,21.51
2022-08-18T01:57:42.932Z,21.48
2022-08-18T02:00:17.090Z,21.46
2022-08-18T02:02:44.212Z,21.45
2022-08-18T02:05:18.293Z,21.46
2022-08-18T02:07:45.201Z,21.42
2022-08-18T02:10:16.592Z,21.40
2022-08-18T02:12:44.050Z,21.39
2022-08-18T02:15:12.564Z,21.34
2022-08-18T02:17:42.816Z,21.37
2022-08-18T02:20:15.070Z,21.37
2022-08-18T02:22:42.939Z,21.35
2022-08-18T02:25:12.057Z,21.36
2022-08-18T02:27:39.076Z,21.33
2022-08-18T02:30:10.948Z,21.33
2022-08-18T02:32:38.244Z,21.32
2022-08-18T02:35:09.441Z,21.33
2022-08-18T02:37:42.046Z,21.31
2022-08-18T02:40:14.849Z,21.29
2022-08-18T02:42:43.383Z,21.33
2022-08-18T02:45:12.736Z,21.34
2022-08-18T02:47:40.748Z,21.33
2022-08-18T02:50:10.934Z,21.31
2022-08-18T02:52:40.337Z,21.32
2022-08-18T02:55:08.175Z,21.31
2022-08-18T02:57:35.011Z,21.31
2022-08-18T03:00:02.336Z,21.34
2022-08-18T03:02:29.173Z,21.33
2022-08-18T03:04:55.957Z,21.30
2022-08-18T03:07:22.832Z,21.31
2022-08-18T03:09:49.737Z,21.30
2022-08-18T03:12:16.605Z,21.31
2022-08-18T03:14:43.574Z,21.31
2022-08-18T03:17:10.731Z,21.24
2022-08-18T03:19:38.694Z,21.26
2022-08-18T03:22:27.559Z,21.24
2022-08-18T03:24:56.479Z,21.17
2022-08-18T03:27:23.271Z,21.21
2022-08-18T03:29:51.370Z,21.18
2022-08-18T03:32:18.827Z,21.16
2022-08-18T03:34:45.698Z,21.17
2022-08-18T03:37:12.750Z,21.18
2022-08-18T03:39:40.812Z,21.14
2022-08-18T03:42:08.169Z,21.13
2022-08-18T03:44:39.310Z,21.11
2022-08-18T03:47:10.838Z,21.09
2022-08-18T03:49:38.633Z,21.07
2022-08-18T03:52:10.999Z,21.09
2022-08-18T03:54:39.133Z,21.04
2022-08-18T03:57:09.940Z,21.06
2022-08-18T03:59:37.356Z,21.02
2022-08-18T04:02:05.464Z,21.02
2022-08-18T04:04:32.397Z,20.99
2022-08-18T04:07:06.104Z,20.97
2022-08-18T04:09:35.910Z,20.96
2022-08-18T04:12:17.006Z,20.96
2022-08-18T04:14:49.479Z,20.89
2022-08-18T04:17:24.962Z,20.90
2022-08-18T04:19:55.133Z,20.87
2022-08-18T04:22:23.794Z,20.88
2022-08-18T04:24:51.193Z,20.91
2022-08-18T04:27:21.146Z,20.93
2022-08-18T04:29:48.873Z,20.96
2022-08-18T04:32:16.643Z,21.01
2022-08-18T04:34:43.610Z,21.05
2022-08-18T04:37:10.946Z,21.10
2022-08-18T04:39:38.245Z,21.14
2022-08-18T04:42:05.877Z,21.20
2022-08-18T04:44:33.781Z,21.26
2022-08-18T04:47:02.057Z,21.31
2022-08-18T04:49:30.215Z,21.35
2022-08-18T04:52:30.880Z,21.42
2022-08-18T04:55:03.786Z,21.45
2022-08-18T04:57:34.033Z,21.50
2022-08-18T05:00:04.844Z,21.54
2022-08-18T05:02:33.040Z,21.60
2022-08-18T05:05:01.517Z,21.64
2022-08-18T05:07:30.390Z,21.69
2022-08-18T05:09:57.397Z,21.72
2022-08-18T05:12:25.933Z,21.74
2022-08-18T05:14:56.741Z,21.79
2022-08-18T05:17:29.975Z,21.82
2022-08-18T05:19:59.881Z,21.88
2022-08-18T05:22:31.212Z,21.93
2022-08-18T05:24:59.960Z,21.97
2022-08-18T05:27:32.967Z,22.00
2022-08-18T05:29:59.860Z,22.08
2022-08-18T05:32:37.310Z,22.12
2022-08-18T05:35:25.338Z,22.14
2022-08-18T05:38:17.109Z,22.18
2022-08-18T05:40:46.098Z,22.19
2022-08-18T05:43:15.393Z,22.25
2022-08-18T05:45:44.113Z,22.29
2022-08-18T05:48:10.969Z,22.34
2022-08-18T05:50:38.234Z,22.38
2022-08-18T05:53:14.081Z,22.39
2022-08-18T05:56:19.886Z,22.44
2022-08-18T05:58:55.431Z,22.46
2022-08-18T06:01:38.614Z,22.48
2022-08-18T06:04:29.614Z,22.51
2022-08-18T06:06:58.046Z,22.54
2022-08-18T06:09:38.622Z,22.61
2022-08-18T06:12:19.327Z,22.62
2022-08-18T06:14:46.470Z,22.66
2022-08-18T06:17:43.788Z,22.68
2022-08-18T06:20:42.848Z,22.70
2022-08-18T06:23:34.433Z,22.72
2022-08-18T06:26:26.681Z,22.73
2022-08-18T06:29:12.358Z,22.75
2022-08-18T06:31:51.452Z,22.80
2022-08-18T06:35:18.459Z,22.83
2022-08-18T06:38:46.411Z,22.85
2022-08-18T06:41:40.772Z,22.90
2022-08-18T06:44:19.760Z,22.92
2022-08-18T06:47:20.874Z,22.93
2022-08-18T06:49:55.495Z,22.95
2022-08-18T06:52:33.853Z,23.00
2022-08-18T06:55:17.462Z,23.01
2022-08-18T06:57:58.228Z,23.02
2022-08-18T07:00:32.662Z,23.06
2022-08-18T07:03:18.010Z,23.08
2022-08-18T07:06:06.393Z,23.10
2022-08-18T07:08:43.059Z,23.11
2022-08-18T07:11:17.881Z,23.14
2022-08-18T07:14:03.409Z,23.19
2022-08-18T07:16:57.174Z,23.21
2022-08-18T07:19:30.355Z,23.23
2022-08-18T07:22:11.361Z,23.26
2022-08-18T07:24:48.500Z,23.27
2022-08-18T07:27:49.115Z,23.30
2022-08-18T07:30:36.080Z,23.32
2022-08-18T07:33:21.292Z,23.32
2022-08-18T07:35:54.102Z,23.34
2022-08-18T07:38:58.494Z,23.38
2022-08-18T07:41:39.121Z,23.42
2022-08-18T07:44:26.582Z,23.47
2022-08-18T07:47:07.315Z,23.53
2022-08-18T07:49:50.193Z,23.60
2022-08-18T07:52:47.230Z,23.65
2022-08-18T07:55:35.644Z,23.71
2022-08-18T07:58:22.878Z,23.75
2022-08-18T08:01:27.877Z,23.81
2022-08-18T08:04:25.275Z,23.84
2022-08-18T08:07:30.826Z,23.88
2022-08-18T08:10:37.621Z,23.92
2022-08-18T08:13:53.935Z,24.00
2022-08-18T08:16:51.264Z,24.00
2022-08-18T08:19:59.633Z,24.06
2022-08-18T08:22:31.061Z,24.13
2022-08-18T08:25:45.930Z,24.15
2022-08-18T08:28:55.154Z,24.18
2022-08-18T08:31:50.887Z,24.22
2022-08-18T08:34:40.059Z,24.27
2022-08-18T08:37:15.835Z,24.30
2022-08-18T08:39:54.164Z,24.36
2022-08-18T08:42:45.829Z,24.36
2022-08-18T08:45:27.315Z,24.44
2022-08-18T08:48:24.429Z,24.46
2022-08-18T08:51:03.675Z,24.53
2022-08-18T08:53:41.756Z,24.57
2022-08-18T08:56:16.488Z,24.63
2022-08-18T08:59:02.380Z,24.66
2022-08-18T09:02:08.767Z,24.69
2022-08-18T09:05:09.639Z,24.76
2022-08-18T09:08:14.234Z,24.82
2022-08-18T09:10:59.515Z,24.86
2022-08-18T09:13:56.041Z,24.91
2022-08-18T09:16:52.863Z,24.96
2022-08-18T09:19:58.730Z,24.99
2022-08-18T09:22:55.907Z,25.05
2022-08-18T09:25:38.206Z,25.15
2022-08-18T09:28:13.821Z,25.26
2022-08-18T09:30:54.587Z,25.36
2022-08-18T09:33:48.424Z,25.47
2022-08-18T09:36:37.869Z,25.55
2022-08-18T09:39:56.572Z,25.67
2022-08-18T09:42:56.309Z,25.79
2022-08-18T09:45:35.457Z,25.92
2022-08-18T09:48:28.104Z,26.05
2022-08-18T09:51:19.306Z,26.18
2022-08-18T09:53:46.274Z,26.28
2022-08-18T09:56:53.590Z,26.40
2022-08-18T09:59:36.754Z,26.49
2022-08-18T10:02:28.578Z,26.59
2022-08-18T10:05:17.353Z,26.73
2022-08-18T10:07:54.356Z,26.89
2022-08-18T10:11:01.504Z,27.07
2022-08-18T10:14:06.485Z,27.31
2022-08-18T10:17:23.856Z,27.49
2022-08-18T10:20:26.823Z,27.71
2022-08-18T10:22:57.409Z,27.91
2022-08-18T10:25:38.486Z,28.09
2022-08-18T10:28:10.550Z,28.26
2022-08-18T10:34:19.155Z,28.54
2022-08-18T10:36:51.952Z,28.71
2022-08-18T10:39:47.096Z,28.85
2022-08-18T10:46:51.863Z,29.29
2022-08-18T10:49:29.948Z,29.45
2022-08-18T10:53:24.218Z,29.51
2022-08-18T10:56:27.424Z,29.60
2022-08-18T10:59:07.828Z,29.76
2022-08-18T11:01:59.519Z,29.85
2022-08-18T11:04:44.167Z,29.97
2022-08-18T11:10:58.001Z,30.05
2022-08-18T11:13:56.913Z,30.05
2022-08-18T11:17:24.140Z,30.07
2022-08-18T11:19:54.715Z,30.12
2022-08-18T11:22:34.413Z,30.21
2022-08-18T11:25:19.501Z,30.34
2022-08-18T11:27:51.289Z,30.56
2022-08-18T11:30:21.321Z,30.85
2022-08-18T11:33:02.948Z,31.14
2022-08-18T11:35:48.296Z,31.41
2022-08-18T11:38:21.041Z,31.66
2022-08-18T11:41:11.243Z,31.90
2022-08-18T11:43:46.582Z,32.11
2022-08-18T11:46:30.400Z,32.26
2022-08-18T11:49:01.709Z,32.35
2022-08-18T11:51:33.208Z,32.42
2022-08-18T11:54:13.864Z,32.46
2022-08-18T11:56:40.831Z,32.55
2022-08-18T11:59:53.956Z,32.66
2022-08-18T12:02:24.236Z,32.83
2022-08-18T12:05:03.486Z,32.95
2022-08-18T12:07:57.570Z,33.05
2022-08-18T12:10:29.645Z,33.07
2022-08-18T12:13:00.622Z,33.07
2022-08-18T12:15:44.110Z,33.03
2022-08-18T12:18:26.149Z,32.95
2022-08-18T12:20:58.951Z,32.87
2022-08-18T12:23:26.118Z,32.79
2022-08-18T12:25:53.076Z,32.71
2022-08-18T12:28:22.283Z,32.64
2022-08-18T12:30:57.012Z,32.56
2022-08-18T12:33:25.436Z,32.46
2022-08-18T12:35:54.721Z,32.38
2022-08-18T12:38:23.430Z,32.28
2022-08-18T12:40:51.050Z,32.23
2022-08-18T12:43:18.952Z,32.18
2022-08-18T12:45:47.463Z,32.16
2022-08-18T12:48:14.714Z,32.15
2022-08-18T12:50:54.696Z,32.14
2022-08-18T12:53:29.993Z,32.18
2022-08-18T12:56:19.720Z,32.25
2022-08-18T12:58:47.660Z,32.31
2022-08-18T13:01:25.015Z,32.42
2022-08-18T13:04:13.317Z,32.55
2022-08-18T13:07:04.791Z,32.69
2022-08-18T13:09:52.592Z,32.83
2022-08-18T13:12:22.453Z,32.96
2022-08-18T13:14:58.007Z,33.05
2022-08-18T13:17:30.076Z,33.05
2022-08-18T13:20:13.822Z,33.02
2022-08-18T13:22:41.796Z,32.97
2022-08-18T13:25:32.761Z,33.04
2022-08-18T13:28:01.898Z,33.15
2022-08-18T13:30:32.143Z,33.18
2022-08-18T13:33:02.703Z,33.21
2022-08-18T13:35:38.311Z,33.19
2022-08-18T13:38:20.791Z,33.17
2022-08-18T13:40:55.623Z,33.15
2022-08-18T13:43:32.048Z,33.09
2022-08-18T13:45:59.862Z,32.99
2022-08-18T13:48:29.775Z,32.85
2022-08-18T13:51:00.982Z,32.77
2022-08-18T13:53:31.324Z,32.68
2022-08-18T13:55:59.463Z,32.60
2022-08-18T13:58:29.129Z,32.53
2022-08-18T14:03:48.204Z,32.38
2022-08-18T14:06:22.468Z,32.30
2022-08-18T14:08:50.683Z,32.24
2022-08-18T14:11:18.691Z,32.20
2022-08-18T14:13:46.896Z,32.20
2022-08-18T14:16:18.926Z,32.21
2022-08-18T14:19:09.923Z,32.30
2022-08-18T14:22:01.787Z,32.35
2022-08-18T14:24:49.517Z,32.42
2022-08-18T14:27:18.424Z,32.52
2022-08-18T14:29:48.571Z,32.63
2022-08-18T14:32:28.432Z,32.73
2022-08-18T14:35:31.908Z,32.77
2022-08-18T14:37:49.437Z,32.81
2022-08-18T14:40:19.919Z,32.87
2022-08-18T14:42:55.068Z,33.00
2022-08-18T14:45:31.672Z,33.10
2022-08-18T14:48:07.443Z,33.16
2022-08-18T14:50:44.693Z,33.21
2022-08-18T14:53:20.078Z,33.27
2022-08-18T14:55:52.589Z,33.36
2022-08-18T14:58:28.662Z,33.42
2022-08-18T15:00:59.221Z,33.48
2022-08-18T15:03:31.613Z,33.49
2022-08-18T15:06:04.858Z,33.53
2022-08-18T15:08:37.857Z,33.54
2022-08-18T15:11:11.299Z,33.52
2022-08-18T15:13:43.377Z,33.45
2022-08-18T15:16:11.562Z,33.38
2022-08-18T15:18:38.398Z,33.35
2022-08-18T15:21:38.321Z,33.32
2022-08-18T15:24:26.306Z,33.75
2022-08-18T15:27:03.286Z,33.57
2022-08-18T15:29:34.269Z,33.47
2022-08-18T15:32:06.089Z,33.33
2022-08-18T15:34:47.085Z,33.16
2022-08-18T15:37:20.367Z,33.07
2022-08-18T15:40:02.933Z,32.98
2022-08-18T15:42:30.209Z,32.94
2022-08-18T15:45:12.097Z,32.99
2022-08-18T15:47:41.358Z,33.01
2022-08-18T15:50:21.881Z,33.03
2022-08-18T15:53:00.604Z,33.06
2022-08-18T15:55:36.059Z,33.03
2022-08-18T15:58:11.108Z,33.00
2022-08-18T16:00:45.518Z,32.97
2022-08-18T16:03:14.841Z,32.93
2022-08-18T16:05:56.658Z,32.90
2022-08-18T16:08:25.783Z,32.87
2022-08-18T16:10:54.469Z,32.83
2022-08-18T16:13:22.833Z,32.77
2022-08-18T16:15:50.422Z,32.71
2022-08-18T16:18:23.132Z,32.63
2022-08-18T16:20:50.603Z,32.57
2022-08-18T16:23:23.654Z,32.48
2022-08-18T16:25:50.614Z,32.36
2022-08-18T16:28:17.382Z,32.27
2022-08-18T16:30:46.682Z,32.18
2022-08-18T16:33:13.457Z,32.08
2022-08-18T16:35:40.359Z,31.97
2022-08-18T16:38:12.088Z,31.85
2022-08-18T16:40:40.281Z,31.77
2022-08-18T16:43:07.370Z,31.62
2022-08-18T16:45:37.242Z,31.52
2022-08-18T16:48:08.181Z,31.37
2022-08-18T16:50:37.636Z,31.25
2022-08-18T16:53:05.526Z,31.12
2022-08-18T16:55:32.475Z,30.99
2022-08-18T16:58:18.025Z,30.86
2022-08-18T17:01:03.181Z,30.72
2022-08-18T17:03:48.429Z,30.61
2022-08-18T17:06:18.791Z,30.51
2022-08-18T17:08:46.191Z,30.42
2022-08-18T17:11:18.904Z,30.36
2022-08-18T17:13:49.541Z,30.29
2022-08-18T17:16:19.818Z,30.21
2022-08-18T17:18:47.759Z,30.09
2022-08-18T17:21:20.060Z,30.03
2022-08-18T17:23:48.890Z,29.95
2022-08-18T17:27:19.194Z,29.82
2022-08-18T17:30:01.596Z,29.67
2022-08-18T17:32:52.004Z,29.58
2022-08-18T17:35:30.448Z,29.49
2022-08-18T17:38:09.186Z,29.42
2022-08-18T17:40:48.214Z,29.34
2022-08-18T17:43:22.914Z,29.28
2022-08-18T17:45:57.577Z,29.19
2022-08-18T17:48:40.848Z,29.11
2022-08-18T17:51:34.176Z,29.05
2022-08-18T17:54:23.512Z,28.99
2022-08-18T17:57:01.421Z,28.92
2022-08-18T17:59:52.038Z,28.89
2022-08-18T18:02:29.759Z,28.83
2022-08-18T18:05:07.131Z,28.79
2022-08-18T18:07:57.876Z,28.71
2022-08-18T18:11:04.455Z,28.66
2022-08-18T18:13:33.931Z,28.63
2022-08-18T18:16:24.864Z,28.59
2022-08-18T18:19:03.373Z,28.57
2022-08-18T18:21:53.396Z,28.51
2022-08-18T18:24:32.297Z,28.48
2022-08-18T18:27:00.081Z,28.44
2022-08-18T18:29:38.016Z,28.43
2022-08-18T18:32:27.732Z,28.34
2022-08-18T18:35:22.862Z,28.26
2022-08-18T18:38:23.054Z,28.16
2022-08-18T18:41:01.945Z,28.09
2022-08-18T18:43:45.948Z,28.02
2022-08-18T18:46:24.541Z,27.98
2022-08-18T18:49:05.789Z,27.88
2022-08-18T18:52:19.228Z,27.77
2022-08-18T18:55:03.428Z,27.69
2022-08-18T18:57:48.570Z,27.63
2022-08-18T19:00:41.962Z,27.50
2022-08-18T19:03:38.389Z,27.46
2022-08-18T19:06:32.547Z,27.34
2022-08-18T19:09:29.536Z,27.24
2022-08-18T19:12:20.812Z,27.15
2022-08-18T19:15:00.028Z,27.08
2022-08-18T19:17:38.811Z,26.99
2022-08-18T19:20:17.087Z,26.91
2022-08-18T19:23:11.069Z,26.84
2022-08-18T19:25:52.204Z,26.78
2022-08-18T19:28:34.325Z,26.71
2022-08-18T19:31:23.233Z,26.63
2022-08-18T19:34:08.525Z,26.56
2022-08-18T19:37:06.941Z,26.43
2022-08-18T19:39:42.690Z,26.40
2022-08-18T19:42:35.694Z,26.31
2022-08-18T19:45:29.849Z,26.24
2022-08-18T19:48:18.224Z,26.16
2022-08-18T19:50:58.045Z,26.11
2022-08-18T19:53:56.985Z,25.99
2022-08-18T19:56:36.580Z,25.93
2022-08-18T19:59:15.387Z,25.86
2022-08-18T20:01:45.495Z,25.80
2022-08-18T20:05:01.646Z,25.72
2022-08-18T20:08:06.600Z,25.59
2022-08-18T20:11:11.026Z,25.51
2022-08-18T20:13:44.643Z,25.45
2022-08-18T20:16:44.036Z,25.38
2022-08-18T20:19:43.360Z,25.28
2022-08-18T20:22:24.328Z,25.26
2022-08-18T20:25:08.786Z,25.19
2022-08-18T20:28:11.218Z,25.06
2022-08-18T20:31:06.721Z,24.98
2022-08-18T20:33:46.809Z,24.92
2022-08-18T20:36:36.676Z,24.84
2022-08-18T20:39:47.557Z,24.75
2022-08-18T20:42:24.576Z,24.68
2022-08-18T20:44:59.747Z,24.61
2022-08-18T20:48:12.969Z,24.55
2022-08-18T20:51:13.675Z,24.46
2022-08-18T20:54:13.381Z,24.37
2022-08-18T20:56:44.452Z,24.34
2022-08-18T20:59:21.631Z,24.31
2022-08-18T21:01:56.317Z,24.28
2022-08-18T21:04:46.486Z,24.22
2022-08-18T21:07:36.207Z,24.20
2022-08-18T21:10:21.628Z,24.14
2022-08-18T21:12:56.706Z,24.11
2022-08-18T21:15:35.537Z,24.06
2022-08-18T21:18:20.862Z,23.99
2022-08-18T21:20:51.212Z,23.98
2022-08-18T21:23:29.762Z,23.96
2022-08-18T21:26:09.994Z,23.93
2022-08-18T21:28:40.795Z,23.90
2022-08-18T21:31:42.676Z,23.86
2022-08-18T21:34:28.714Z,23.82
2022-08-18T21:36:58.192Z,23.79
2022-08-18T21:39:25.675Z,23.76
2022-08-18T21:41:56.850Z,23.74
2022-08-18T21:44:38.442Z,23.72
2022-08-18T21:47:17.671Z,23.69
2022-08-18T21:50:17.375Z,23.63
2022-08-18T21:53:01.639Z,23.60
2022-08-18T21:55:39.741Z,23.59
2022-08-18T21:58:16.715Z,23.56
2022-08-18T22:01:11.257Z,23.52
2022-08-18T22:04:06.997Z,23.46
2022-08-18T22:06:33.796Z,23.46
2022-08-18T22:09:28.468Z,23.46
2022-08-18T22:12:46.834Z,23.40
2022-08-18T22:15:25.838Z,23.40
2022-08-18T22:18:00.947Z,23.40
2022-08-18T22:20:50.578Z,23.41
2022-08-18T22:23:46.435Z,23.42
2022-08-18T22:26:28.778Z,23.41
2022-08-18T22:29:16.475Z,23.42
2022-08-18T22:31:48.262Z,23.42
2022-08-18T22:34:28.606Z,23.42
2022-08-18T22:37:03.572Z,23.40
2022-08-18T22:39:55.737Z,23.38
2022-08-18T22:42:27.709Z,23.35
2022-08-18T22:44:58.079Z,23.33
2022-08-18T22:47:29.324Z,23.30
2022-08-18T22:49:57.330Z,23.27
2022-08-18T22:52:40.479Z,23.24
2022-08-18T22:55:12.722Z,23.22
2022-08-18T22:57:42.799Z,23.20
2022-08-18T23:00:15.238Z,23.19
2022-08-18T23:02:43.708Z,23.15
2022-08-18T23:05:11.828Z,23.15
2022-08-18T23:07:38.799Z,23.12
2022-08-18T23:10:13.558Z,23.12
2022-08-18T23:12:46.795Z,23.11
2022-08-18T23:15:17.036Z,23.08
2022-08-18T23:17:44.389Z,23.08
2022-08-18T23:20:19.223Z,23.10
2022-08-18T23:22:47.883Z,23.11
2022-08-18T23:25:15.826Z,23.09
2022-08-18T23:27:43.079Z,23.07
2022-08-18T23:30:11.132Z,23.06
2022-08-18T23:32:38.063Z,23.05
2022-08-18T23:35:05.776Z,23.04
2022-08-18T23:37:32.635Z,23.02
2022-08-18T23:39:59.658Z,23.01
2022-08-18T23:42:26.715Z,22.99
2022-08-18T23:44:53.547Z,22.99
2022-08-18T23:47:20.784Z,22.97
2022-08-18T23:49:48.356Z,22.96
2022-08-18T23:52:15.379Z,22.95
2022-08-18T23:54:42.455Z,22.92
2022-08-18T23:57:09.317Z,22.92
2022-08-18T23:59:36.589Z,22.88
